sensor_id;sensor_type;location;lat;lon;timestamp;P1;durP1;ratioP1;P2;durP2;ratioP2
17197;SDS011;8715;51.010;6.812;2023-03-11T00:00:26;361.92;;;345.80;;
17197;SDS011;8715;51.010;6.812;2023-03-11T00:02:52;365.15;;;348.92;;
17197;SDS011;8715;51.010;6.812;2023-03-11T00:05:18;359.75;;;343.63;;
17197;SDS011;8715;51.010;6.812;2023-03-11T00:07:44;357.15;;;341.67;;
17197;SDS011;8715;51.010;6.812;2023-03-11T00:10:30;349.37;;;334.10;;
17197;SDS011;8715;51.010;6.812;2023-03-11T00:12:54;370.67;;;354.02;;
17197;SDS011;8715;51.010;6.812;2023-03-11T00:15:20;358.60;;;343.00;;
17197;SDS011;8715;51.010;6.812;2023-03-11T00:17:48;367.70;;;351.60;;
17197;SDS011;8715;51.010;6.812;2023-03-11T00:20:15;362.05;;;345.80;;
17197;SDS011;8715;51.010;6.812;2023-03-11T00:22:40;359.73;;;343.92;;
17197;SDS011;8715;51.010;6.812;2023-03-11T00:25:06;365.87;;;349.77;;
17197;SDS011;8715;51.010;6.812;2023-03-11T00:27:31;346.77;;;331.67;;
17197;SDS011;8715;51.010;6.812;2023-03-11T00:29:56;422.17;;;404.03;;
17197;SDS011;8715;51.010;6.812;2023-03-11T00:32:21;344.93;;;329.63;;
17197;SDS011;8715;51.010;6.812;2023-03-11T00:34:46;371.13;;;355.13;;
17197;SDS011;8715;51.010;6.812;2023-03-11T00:37:12;357.48;;;341.50;;
17197;SDS011;8715;51.010;6.812;2023-03-11T00:39:37;412.03;;;393.80;;
17197;SDS011;8715;51.010;6.812;2023-03-11T00:42:02;363.10;;;347.17;;
17197;SDS011;8715;51.010;6.812;2023-03-11T00:44:28;348.10;;;333.17;;
17197;SDS011;8715;51.010;6.812;2023-03-11T00:46:53;336.00;;;320.63;;
17197;SDS011;8715;51.010;6.812;2023-03-11T00:49:18;349.67;;;334.93;;
17197;SDS011;8715;51.010;6.812;2023-03-11T00:51:43;348.87;;;333.97;;
17197;SDS011;8715;51.010;6.812;2023-03-11T00:54:08;355.48;;;338.85;;
17197;SDS011;8715;51.010;6.812;2023-03-11T00:56:34;357.00;;;341.47;;
17197;SDS011;8715;51.010;6.812;2023-03-11T00:58:59;350.73;;;335.50;;
17197;SDS011;8715;51.010;6.812;2023-03-11T01:01:24;346.48;;;331.17;;
17197;SDS011;8715;51.010;6.812;2023-03-11T01:03:49;365.60;;;349.80;;
17197;SDS011;8715;51.010;6.812;2023-03-11T01:06:15;349.63;;;333.97;;
17197;SDS011;8715;51.010;6.812;2023-03-11T01:08:40;348.50;;;333.30;;
17197;SDS011;8715;51.010;6.812;2023-03-11T01:11:05;351.97;;;336.73;;
17197;SDS011;8715;51.010;6.812;2023-03-11T01:13:31;358.75;;;343.15;;
17197;SDS011;8715;51.010;6.812;2023-03-11T01:15:56;350.30;;;334.93;;
17197;SDS011;8715;51.010;6.812;2023-03-11T01:18:21;356.10;;;341.10;;
17197;SDS011;8715;51.010;6.812;2023-03-11T01:20:47;350.47;;;335.60;;
17197;SDS011;8715;51.010;6.812;2023-03-11T01:23:13;372.80;;;355.63;;
17197;SDS011;8715;51.010;6.812;2023-03-11T01:25:38;352.60;;;337.10;;
17197;SDS011;8715;51.010;6.812;2023-03-11T01:28:04;352.90;;;337.40;;
17197;SDS011;8715;51.010;6.812;2023-03-11T01:30:29;366.50;;;350.00;;
17197;SDS011;8715;51.010;6.812;2023-03-11T01:32:55;355.50;;;340.53;;
17197;SDS011;8715;51.010;6.812;2023-03-11T01:35:22;355.75;;;340.13;;
17197;SDS011;8715;51.010;6.812;2023-03-11T01:37:47;377.80;;;361.10;;
17197;SDS011;8715;51.010;6.812;2023-03-11T01:40:14;348.83;;;333.97;;
17197;SDS011;8715;51.010;6.812;2023-03-11T01:42:41;356.45;;;341.17;;
17197;SDS011;8715;51.010;6.812;2023-03-11T01:45:41;357.50;;;341.80;;
17197;SDS011;8715;51.010;6.812;2023-03-11T01:47:58;353.55;;;338.38;;
17197;SDS011;8715;51.010;6.812;2023-03-11T01:50:23;353.73;;;337.57;;
17197;SDS011;8715;51.010;6.812;2023-03-11T01:52:49;350.65;;;335.63;;
17197;SDS011;8715;51.010;6.812;2023-03-11T01:55:14;344.13;;;328.83;;
17197;SDS011;8715;51.010;6.812;2023-03-11T01:57:41;346.60;;;331.73;;
17197;SDS011;8715;51.010;6.812;2023-03-11T02:00:08;405.00;;;387.83;;
17197;SDS011;8715;51.010;6.812;2023-03-11T02:02:41;346.98;;;332.35;;
17197;SDS011;8715;51.010;6.812;2023-03-11T02:05:07;350.52;;;335.05;;
17197;SDS011;8715;51.010;6.812;2023-03-11T02:07:33;358.80;;;341.75;;
17197;SDS011;8715;51.010;6.812;2023-03-11T02:09:58;344.48;;;329.45;;
17197;SDS011;8715;51.010;6.812;2023-03-11T02:12:24;357.37;;;342.03;;
17197;SDS011;8715;51.010;6.812;2023-03-11T02:14:49;344.20;;;328.57;;
17197;SDS011;8715;51.010;6.812;2023-03-11T02:17:15;364.25;;;346.95;;
17197;SDS011;8715;51.010;6.812;2023-03-11T02:22:41;338.85;;;324.00;;
17197;SDS011;8715;51.010;6.812;2023-03-11T02:27:51;330.85;;;316.90;;
17197;SDS011;8715;51.010;6.812;2023-03-11T02:30:17;347.63;;;332.38;;
17197;SDS011;8715;51.010;6.812;2023-03-11T02:32:43;342.55;;;326.83;;
17197;SDS011;8715;51.010;6.812;2023-03-11T02:35:09;339.27;;;324.77;;
17197;SDS011;8715;51.010;6.812;2023-03-11T02:37:34;347.02;;;331.27;;
17197;SDS011;8715;51.010;6.812;2023-03-11T02:42:43;327.98;;;313.63;;
17197;SDS011;8715;51.010;6.812;2023-03-11T02:45:13;327.23;;;312.20;;
17197;SDS011;8715;51.010;6.812;2023-03-11T02:47:39;330.10;;;315.35;;
17197;SDS011;8715;51.010;6.812;2023-03-11T02:50:05;329.58;;;315.35;;
17197;SDS011;8715;51.010;6.812;2023-03-11T02:52:31;339.05;;;323.75;;
17197;SDS011;8715;51.010;6.812;2023-03-11T02:54:57;338.67;;;323.92;;
17197;SDS011;8715;51.010;6.812;2023-03-11T02:57:22;331.37;;;315.73;;
17197;SDS011;8715;51.010;6.812;2023-03-11T02:59:47;340.50;;;325.87;;
17197;SDS011;8715;51.010;6.812;2023-03-11T03:02:12;323.40;;;309.37;;
17197;SDS011;8715;51.010;6.812;2023-03-11T03:04:38;322.90;;;308.83;;
17197;SDS011;8715;51.010;6.812;2023-03-11T03:07:03;335.37;;;320.37;;
17197;SDS011;8715;51.010;6.812;2023-03-11T03:09:28;331.73;;;316.87;;
17197;SDS011;8715;51.010;6.812;2023-03-11T03:11:53;339.47;;;325.07;;
17197;SDS011;8715;51.010;6.812;2023-03-11T03:14:18;337.53;;;323.27;;
17197;SDS011;8715;51.010;6.812;2023-03-11T03:16:44;318.50;;;304.93;;
17197;SDS011;8715;51.010;6.812;2023-03-11T03:19:09;327.90;;;313.93;;
17197;SDS011;8715;51.010;6.812;2023-03-11T03:21:34;317.03;;;303.33;;
17197;SDS011;8715;51.010;6.812;2023-03-11T03:23:59;321.57;;;307.23;;
17197;SDS011;8715;51.010;6.812;2023-03-11T03:26:24;314.93;;;301.17;;
17197;SDS011;8715;51.010;6.812;2023-03-11T03:28:50;337.70;;;321.07;;
17197;SDS011;8715;51.010;6.812;2023-03-11T03:31:15;321.47;;;307.47;;
17197;SDS011;8715;51.010;6.812;2023-03-11T03:33:40;332.27;;;317.50;;
17197;SDS011;8715;51.010;6.812;2023-03-11T03:36:06;317.60;;;304.10;;
17197;SDS011;8715;51.010;6.812;2023-03-11T03:38:32;319.52;;;305.65;;
17197;SDS011;8715;51.010;6.812;2023-03-11T03:40:57;318.00;;;303.57;;
17197;SDS011;8715;51.010;6.812;2023-03-11T03:43:22;311.23;;;297.90;;
17197;SDS011;8715;51.010;6.812;2023-03-11T03:45:54;323.27;;;309.97;;
17197;SDS011;8715;51.010;6.812;2023-03-11T03:48:19;328.63;;;314.00;;
17197;SDS011;8715;51.010;6.812;2023-03-11T03:50:44;296.87;;;284.17;;
17197;SDS011;8715;51.010;6.812;2023-03-11T03:53:10;311.37;;;297.43;;
17197;SDS011;8715;51.010;6.812;2023-03-11T03:55:35;317.53;;;303.10;;
17197;SDS011;8715;51.010;6.812;2023-03-11T03:58:00;370.73;;;355.27;;
17197;SDS011;8715;51.010;6.812;2023-03-11T04:00:25;308.50;;;295.27;;
17197;SDS011;8715;51.010;6.812;2023-03-11T04:02:50;309.67;;;295.90;;
17197;SDS011;8715;51.010;6.812;2023-03-11T04:05:16;305.17;;;291.93;;
17197;SDS011;8715;51.010;6.812;2023-03-11T04:07:41;309.27;;;295.37;;
17197;SDS011;8715;51.010;6.812;2023-03-11T04:10:06;303.77;;;290.67;;
17197;SDS011;8715;51.010;6.812;2023-03-11T04:12:31;314.50;;;299.87;;
17197;SDS011;8715;51.010;6.812;2023-03-11T04:14:56;309.43;;;295.60;;
17197;SDS011;8715;51.010;6.812;2023-03-11T04:17:22;300.77;;;286.93;;
17197;SDS011;8715;51.010;6.812;2023-03-11T04:19:47;309.07;;;295.63;;
17197;SDS011;8715;51.010;6.812;2023-03-11T04:22:12;294.97;;;282.50;;
17197;SDS011;8715;51.010;6.812;2023-03-11T04:24:37;305.07;;;291.43;;
17197;SDS011;8715;51.010;6.812;2023-03-11T04:27:03;386.50;;;369.67;;
17197;SDS011;8715;51.010;6.812;2023-03-11T04:29:28;296.43;;;283.30;;
17197;SDS011;8715;51.010;6.812;2023-03-11T04:31:53;305.97;;;291.03;;
17197;SDS011;8715;51.010;6.812;2023-03-11T04:34:18;301.60;;;288.27;;
17197;SDS011;8715;51.010;6.812;2023-03-11T04:36:44;308.05;;;294.30;;
17197;SDS011;8715;51.010;6.812;2023-03-11T04:39:09;297.50;;;283.53;;
17197;SDS011;8715;51.010;6.812;2023-03-11T04:41:35;304.13;;;291.07;;
17197;SDS011;8715;51.010;6.812;2023-03-11T04:44:00;295.58;;;282.90;;
17197;SDS011;8715;51.010;6.812;2023-03-11T04:46:25;297.77;;;284.67;;
17197;SDS011;8715;51.010;6.812;2023-03-11T04:48:51;301.20;;;287.33;;
17197;SDS011;8715;51.010;6.812;2023-03-11T04:51:16;299.40;;;286.20;;
17197;SDS011;8715;51.010;6.812;2023-03-11T04:53:41;287.47;;;274.53;;
17197;SDS011;8715;51.010;6.812;2023-03-11T04:56:06;288.73;;;276.00;;
17197;SDS011;8715;51.010;6.812;2023-03-11T04:58:31;323.20;;;308.83;;
17197;SDS011;8715;51.010;6.812;2023-03-11T05:00:56;290.43;;;277.00;;
17197;SDS011;8715;51.010;6.812;2023-03-11T05:03:22;291.70;;;278.67;;
17197;SDS011;8715;51.010;6.812;2023-03-11T05:05:47;295.57;;;282.13;;
17197;SDS011;8715;51.010;6.812;2023-03-11T05:08:12;298.77;;;285.40;;
17197;SDS011;8715;51.010;6.812;2023-03-11T05:10:38;298.87;;;285.97;;
17197;SDS011;8715;51.010;6.812;2023-03-11T05:13:03;293.98;;;280.20;;
17197;SDS011;8715;51.010;6.812;2023-03-11T05:15:29;310.63;;;296.50;;
17197;SDS011;8715;51.010;6.812;2023-03-11T05:17:55;322.20;;;308.30;;
17197;SDS011;8715;51.010;6.812;2023-03-11T05:20:20;306.80;;;293.17;;
17197;SDS011;8715;51.010;6.812;2023-03-11T05:22:45;315.37;;;300.50;;
17197;SDS011;8715;51.010;6.812;2023-03-11T05:25:11;302.43;;;288.83;;
17197;SDS011;8715;51.010;6.812;2023-03-11T05:27:36;294.42;;;280.13;;
17197;SDS011;8715;51.010;6.812;2023-03-11T05:30:02;303.60;;;290.30;;
17197;SDS011;8715;51.010;6.812;2023-03-11T05:32:27;301.95;;;288.30;;
17197;SDS011;8715;51.010;6.812;2023-03-11T05:34:52;291.20;;;278.40;;
17197;SDS011;8715;51.010;6.812;2023-03-11T05:37:18;302.73;;;288.87;;
17197;SDS011;8715;51.010;6.812;2023-03-11T05:39:43;295.60;;;282.47;;
17197;SDS011;8715;51.010;6.812;2023-03-11T05:42:08;307.47;;;294.20;;
17197;SDS011;8715;51.010;6.812;2023-03-11T05:44:34;313.50;;;299.98;;
17197;SDS011;8715;51.010;6.812;2023-03-11T05:46:59;296.57;;;282.87;;
17197;SDS011;8715;51.010;6.812;2023-03-11T05:49:24;306.45;;;293.15;;
17197;SDS011;8715;51.010;6.812;2023-03-11T05:51:50;316.83;;;303.10;;
17197;SDS011;8715;51.010;6.812;2023-03-11T05:54:15;299.08;;;286.23;;
17197;SDS011;8715;51.010;6.812;2023-03-11T05:56:41;321.35;;;307.45;;
17197;SDS011;8715;51.010;6.812;2023-03-11T05:59:06;304.15;;;290.95;;
17197;SDS011;8715;51.010;6.812;2023-03-11T06:01:32;304.67;;;290.95;;
17197;SDS011;8715;51.010;6.812;2023-03-11T06:03:57;316.92;;;303.17;;
17197;SDS011;8715;51.010;6.812;2023-03-11T06:06:22;314.80;;;301.47;;
17197;SDS011;8715;51.010;6.812;2023-03-11T06:08:47;322.80;;;309.00;;
17197;SDS011;8715;51.010;6.812;2023-03-11T06:11:15;317.27;;;303.48;;
17197;SDS011;8715;51.010;6.812;2023-03-11T06:13:40;301.10;;;288.52;;
17197;SDS011;8715;51.010;6.812;2023-03-11T06:16:06;310.30;;;296.60;;
17197;SDS011;8715;51.010;6.812;2023-03-11T06:18:31;371.33;;;355.70;;
17197;SDS011;8715;51.010;6.812;2023-03-11T06:20:59;311.33;;;298.33;;
17197;SDS011;8715;51.010;6.812;2023-03-11T06:23:25;324.95;;;310.50;;
17197;SDS011;8715;51.010;6.812;2023-03-11T06:25:56;331.77;;;317.08;;
17197;SDS011;8715;51.010;6.812;2023-03-11T06:28:22;327.00;;;312.88;;
17197;SDS011;8715;51.010;6.812;2023-03-11T06:30:47;336.60;;;322.27;;
17197;SDS011;8715;51.010;6.812;2023-03-11T06:33:12;338.03;;;323.00;;
17197;SDS011;8715;51.010;6.812;2023-03-11T06:35:39;338.63;;;323.50;;
17197;SDS011;8715;51.010;6.812;2023-03-11T06:38:04;340.73;;;325.58;;
17197;SDS011;8715;51.010;6.812;2023-03-11T06:40:29;331.10;;;316.40;;
17197;SDS011;8715;51.010;6.812;2023-03-11T06:42:54;339.23;;;324.33;;
17197;SDS011;8715;51.010;6.812;2023-03-11T06:45:19;342.47;;;328.17;;
17197;SDS011;8715;51.010;6.812;2023-03-11T06:47:45;338.57;;;323.90;;
17197;SDS011;8715;51.010;6.812;2023-03-11T06:50:10;337.63;;;322.67;;
17197;SDS011;8715;51.010;6.812;2023-03-11T06:52:35;347.53;;;332.13;;
17197;SDS011;8715;51.010;6.812;2023-03-11T06:55:01;343.98;;;329.13;;
17197;SDS011;8715;51.010;6.812;2023-03-11T06:57:27;348.33;;;332.33;;
17197;SDS011;8715;51.010;6.812;2023-03-11T06:59:54;347.27;;;331.95;;
17197;SDS011;8715;51.010;6.812;2023-03-11T07:02:20;337.90;;;323.33;;
17197;SDS011;8715;51.010;6.812;2023-03-11T07:04:47;335.20;;;320.33;;
17197;SDS011;8715;51.010;6.812;2023-03-11T07:07:12;403.60;;;386.23;;
17197;SDS011;8715;51.010;6.812;2023-03-11T07:09:38;356.00;;;340.50;;
17197;SDS011;8715;51.010;6.812;2023-03-11T07:12:04;349.13;;;334.17;;
17197;SDS011;8715;51.010;6.812;2023-03-11T07:14:29;354.13;;;338.70;;
17197;SDS011;8715;51.010;6.812;2023-03-11T07:16:54;374.17;;;357.57;;
17197;SDS011;8715;51.010;6.812;2023-03-11T07:19:19;360.50;;;345.00;;
17197;SDS011;8715;51.010;6.812;2023-03-11T07:21:44;368.17;;;351.70;;
17197;SDS011;8715;51.010;6.812;2023-03-11T07:24:11;366.63;;;351.63;;
17197;SDS011;8715;51.010;6.812;2023-03-11T07:26:36;446.80;;;429.08;;
17197;SDS011;8715;51.010;6.812;2023-03-11T07:29:02;394.17;;;377.20;;
17197;SDS011;8715;51.010;6.812;2023-03-11T07:31:29;403.85;;;386.48;;
17197;SDS011;8715;51.010;6.812;2023-03-11T07:33:56;395.80;;;378.98;;
17197;SDS011;8715;51.010;6.812;2023-03-11T07:36:22;405.02;;;387.77;;
17197;SDS011;8715;51.010;6.812;2023-03-11T07:38:48;383.95;;;367.20;;
17197;SDS011;8715;51.010;6.812;2023-03-11T07:41:14;381.60;;;365.73;;
17197;SDS011;8715;51.010;6.812;2023-03-11T07:43:40;375.08;;;359.02;;
17197;SDS011;8715;51.010;6.812;2023-03-11T07:46:07;370.23;;;354.60;;
17197;SDS011;8715;51.010;6.812;2023-03-11T07:48:33;380.48;;;364.33;;
17197;SDS011;8715;51.010;6.812;2023-03-11T07:51:00;382.00;;;365.33;;
17197;SDS011;8715;51.010;6.812;2023-03-11T07:53:25;398.13;;;381.00;;
17197;SDS011;8715;51.010;6.812;2023-03-11T07:55:54;370.43;;;354.10;;
17197;SDS011;8715;51.010;6.812;2023-03-11T07:58:19;386.85;;;369.52;;
17197;SDS011;8715;51.010;6.812;2023-03-11T08:00:45;396.30;;;378.47;;
17197;SDS011;8715;51.010;6.812;2023-03-11T08:03:10;385.05;;;368.30;;
17197;SDS011;8715;51.010;6.812;2023-03-11T08:05:35;381.70;;;364.00;;
17197;SDS011;8715;51.010;6.812;2023-03-11T08:08:01;388.53;;;371.37;;
17197;SDS011;8715;51.010;6.812;2023-03-11T08:10:26;380.27;;;363.70;;
17197;SDS011;8715;51.010;6.812;2023-03-11T08:12:51;372.67;;;356.73;;
17197;SDS011;8715;51.010;6.812;2023-03-11T08:15:16;378.33;;;362.27;;
17197;SDS011;8715;51.010;6.812;2023-03-11T08:17:41;413.57;;;396.63;;
17197;SDS011;8715;51.010;6.812;2023-03-11T08:20:07;378.63;;;362.70;;
17197;SDS011;8715;51.010;6.812;2023-03-11T08:22:33;397.13;;;380.60;;
17197;SDS011;8715;51.010;6.812;2023-03-11T08:24:58;406.40;;;389.40;;
17197;SDS011;8715;51.010;6.812;2023-03-11T08:27:23;476.00;;;455.27;;
17197;SDS011;8715;51.010;6.812;2023-03-11T08:29:48;408.90;;;391.17;;
17197;SDS011;8715;51.010;6.812;2023-03-11T08:32:14;395.67;;;378.70;;
17197;SDS011;8715;51.010;6.812;2023-03-11T08:34:39;428.17;;;409.83;;
17197;SDS011;8715;51.010;6.812;2023-03-11T08:37:04;425.20;;;407.47;;
17197;SDS011;8715;51.010;6.812;2023-03-11T08:39:29;447.63;;;429.27;;
17197;SDS011;8715;51.010;6.812;2023-03-11T08:41:55;445.03;;;426.90;;
17197;SDS011;8715;51.010;6.812;2023-03-11T08:44:20;422.73;;;405.30;;
17197;SDS011;8715;51.010;6.812;2023-03-11T08:46:45;440.03;;;421.43;;
17197;SDS011;8715;51.010;6.812;2023-03-11T08:49:10;449.63;;;430.13;;
17197;SDS011;8715;51.010;6.812;2023-03-11T08:51:36;437.23;;;418.17;;
17197;SDS011;8715;51.010;6.812;2023-03-11T08:54:01;434.57;;;415.37;;
17197;SDS011;8715;51.010;6.812;2023-03-11T08:56:26;446.55;;;427.23;;
17197;SDS011;8715;51.010;6.812;2023-03-11T08:58:52;439.25;;;421.17;;
17197;SDS011;8715;51.010;6.812;2023-03-11T09:01:17;526.53;;;505.87;;
17197;SDS011;8715;51.010;6.812;2023-03-11T09:03:44;454.60;;;435.60;;
17197;SDS011;8715;51.010;6.812;2023-03-11T09:06:10;434.17;;;416.13;;
17197;SDS011;8715;51.010;6.812;2023-03-11T09:08:37;446.77;;;428.42;;
17197;SDS011;8715;51.010;6.812;2023-03-11T09:11:02;442.47;;;424.07;;
17197;SDS011;8715;51.010;6.812;2023-03-11T09:13:27;450.40;;;431.00;;
17197;SDS011;8715;51.010;6.812;2023-03-11T09:15:53;461.33;;;442.63;;
17197;SDS011;8715;51.010;6.812;2023-03-11T09:18:18;477.98;;;458.80;;
17197;SDS011;8715;51.010;6.812;2023-03-11T09:20:44;467.98;;;448.83;;
17197;SDS011;8715;51.010;6.812;2023-03-11T09:23:14;471.17;;;452.45;;
17197;SDS011;8715;51.010;6.812;2023-03-11T09:25:40;477.80;;;458.65;;
17197;SDS011;8715;51.010;6.812;2023-03-11T09:28:05;484.00;;;464.50;;
17197;SDS011;8715;51.010;6.812;2023-03-11T09:30:30;481.63;;;461.90;;
17197;SDS011;8715;51.010;6.812;2023-03-11T09:32:55;491.27;;;471.23;;
17197;SDS011;8715;51.010;6.812;2023-03-11T09:35:21;480.13;;;460.70;;
17197;SDS011;8715;51.010;6.812;2023-03-11T09:37:46;466.60;;;447.60;;
17197;SDS011;8715;51.010;6.812;2023-03-11T09:40:14;500.10;;;479.87;;
17197;SDS011;8715;51.010;6.812;2023-03-11T09:42:44;495.30;;;474.80;;
17197;SDS011;8715;51.010;6.812;2023-03-11T09:45:14;489.25;;;469.70;;
17197;SDS011;8715;51.010;6.812;2023-03-11T09:47:44;508.65;;;488.35;;
17197;SDS011;8715;51.010;6.812;2023-03-11T09:50:24;499.98;;;480.10;;
17197;SDS011;8715;51.010;6.812;2023-03-11T09:52:53;514.83;;;494.27;;
17197;SDS011;8715;51.010;6.812;2023-03-11T17:26:50;454.35;;;436.15;;
17197;SDS011;8715;51.010;6.812;2023-03-11T17:29:15;469.47;;;450.27;;
17197;SDS011;8715;51.010;6.812;2023-03-11T17:31:40;476.80;;;457.20;;
17197;SDS011;8715;51.010;6.812;2023-03-11T17:34:06;456.93;;;438.90;;
17197;SDS011;8715;51.010;6.812;2023-03-11T17:36:31;470.23;;;451.30;;
17197;SDS011;8715;51.010;6.812;2023-03-11T17:38:56;453.93;;;435.03;;
17197;SDS011;8715;51.010;6.812;2023-03-11T17:41:21;458.50;;;439.77;;
17197;SDS011;8715;51.010;6.812;2023-03-11T17:43:47;451.77;;;433.83;;
17197;SDS011;8715;51.010;6.812;2023-03-11T17:46:13;430.93;;;413.47;;
17197;SDS011;8715;51.010;6.812;2023-03-11T17:48:39;451.90;;;433.85;;
17197;SDS011;8715;51.010;6.812;2023-03-11T17:51:08;459.10;;;440.40;;
17197;SDS011;8715;51.010;6.812;2023-03-11T17:53:34;430.48;;;413.35;;
17197;SDS011;8715;51.010;6.812;2023-03-11T17:56:01;448.02;;;429.92;;
17197;SDS011;8715;51.010;6.812;2023-03-11T17:58:26;416.20;;;398.97;;
17197;SDS011;8715;51.010;6.812;2023-03-11T18:00:51;486.40;;;465.40;;
17197;SDS011;8715;51.010;6.812;2023-03-11T18:03:17;425.77;;;407.90;;
17197;SDS011;8715;51.010;6.812;2023-03-11T18:05:52;432.00;;;414.48;;
17197;SDS011;8715;51.010;6.812;2023-03-11T18:08:17;409.88;;;392.73;;
17197;SDS011;8715;51.010;6.812;2023-03-11T18:10:47;414.47;;;396.80;;
17197;SDS011;8715;51.010;6.812;2023-03-11T18:13:12;420.80;;;403.60;;
17197;SDS011;8715;51.010;6.812;2023-03-11T18:15:38;407.17;;;390.47;;
17197;SDS011;8715;51.010;6.812;2023-03-11T18:18:03;415.02;;;397.08;;
17197;SDS011;8715;51.010;6.812;2023-03-11T18:20:29;408.50;;;390.97;;
17197;SDS011;8715;51.010;6.812;2023-03-11T18:22:54;485.20;;;465.47;;
17197;SDS011;8715;51.010;6.812;2023-03-11T18:25:20;423.17;;;405.58;;
17197;SDS011;8715;51.010;6.812;2023-03-11T18:27:45;408.27;;;391.52;;
17197;SDS011;8715;51.010;6.812;2023-03-11T18:30:10;397.70;;;381.03;;
17197;SDS011;8715;51.010;6.812;2023-03-11T18:32:36;382.33;;;366.13;;
17197;SDS011;8715;51.010;6.812;2023-03-11T18:35:01;395.00;;;378.27;;
17197;SDS011;8715;51.010;6.812;2023-03-11T18:37:26;407.40;;;388.47;;
17197;SDS011;8715;51.010;6.812;2023-03-11T18:39:51;395.63;;;378.87;;
17197;SDS011;8715;51.010;6.812;2023-03-11T18:42:17;387.05;;;370.55;;
17197;SDS011;8715;51.010;6.812;2023-03-11T18:44:42;382.53;;;366.27;;
17197;SDS011;8715;51.010;6.812;2023-03-11T18:47:07;390.77;;;374.43;;
17197;SDS011;8715;51.010;6.812;2023-03-11T18:49:33;388.85;;;372.70;;
17197;SDS011;8715;51.010;6.812;2023-03-11T18:51:58;373.47;;;357.73;;
17197;SDS011;8715;51.010;6.812;2023-03-11T18:54:24;375.00;;;359.27;;
17197;SDS011;8715;51.010;6.812;2023-03-11T18:56:49;384.15;;;367.60;;
17197;SDS011;8715;51.010;6.812;2023-03-11T18:59:15;439.92;;;421.55;;
17197;SDS011;8715;51.010;6.812;2023-03-11T19:01:40;380.83;;;364.53;;
17197;SDS011;8715;51.010;6.812;2023-03-11T19:04:08;382.13;;;365.70;;
17197;SDS011;8715;51.010;6.812;2023-03-11T19:06:33;377.98;;;361.85;;
17197;SDS011;8715;51.010;6.812;2023-03-11T19:08:59;379.47;;;362.93;;
17197;SDS011;8715;51.010;6.812;2023-03-11T19:11:24;364.98;;;349.30;;
17197;SDS011;8715;51.010;6.812;2023-03-11T19:13:50;364.67;;;349.10;;
17197;SDS011;8715;51.010;6.812;2023-03-11T19:16:16;354.08;;;338.55;;
17197;SDS011;8715;51.010;6.812;2023-03-11T19:18:42;354.88;;;339.25;;
17197;SDS011;8715;51.010;6.812;2023-03-11T19:21:07;370.27;;;353.75;;
17197;SDS011;8715;51.010;6.812;2023-03-11T19:23:34;370.98;;;353.50;;
17197;SDS011;8715;51.010;6.812;2023-03-11T19:25:59;379.90;;;362.03;;
17197;SDS011;8715;51.010;6.812;2023-03-11T19:28:25;358.10;;;341.80;;
17197;SDS011;8715;51.010;6.812;2023-03-11T19:30:54;359.73;;;342.67;;
17197;SDS011;8715;51.010;6.812;2023-03-11T19:33:20;390.67;;;372.80;;
17197;SDS011;8715;51.010;6.812;2023-03-11T19:35:50;366.45;;;349.42;;
17197;SDS011;8715;51.010;6.812;2023-03-11T19:38:15;367.73;;;351.15;;
17197;SDS011;8715;51.010;6.812;2023-03-11T19:40:40;375.37;;;358.07;;
17197;SDS011;8715;51.010;6.812;2023-03-11T19:43:05;364.53;;;348.40;;
17197;SDS011;8715;51.010;6.812;2023-03-11T19:45:31;419.73;;;401.00;;
17197;SDS011;8715;51.010;6.812;2023-03-11T19:47:56;376.30;;;358.67;;
17197;SDS011;8715;51.010;6.812;2023-03-11T19:50:21;379.67;;;362.65;;
17197;SDS011;8715;51.010;6.812;2023-03-11T19:52:47;362.75;;;345.90;;
17197;SDS011;8715;51.010;6.812;2023-03-11T19:55:12;356.35;;;338.77;;
17197;SDS011;8715;51.010;6.812;2023-03-11T19:57:37;376.70;;;356.30;;
17197;SDS011;8715;51.010;6.812;2023-03-11T20:00:03;393.37;;;373.70;;
17197;SDS011;8715;51.010;6.812;2023-03-11T20:02:29;375.33;;;357.05;;
17197;SDS011;8715;51.010;6.812;2023-03-11T20:04:54;364.98;;;347.52;;
17197;SDS011;8715;51.010;6.812;2023-03-11T20:07:19;370.63;;;352.70;;
17197;SDS011;8715;51.010;6.812;2023-03-11T20:09:44;365.30;;;348.50;;
17197;SDS011;8715;51.010;6.812;2023-03-11T20:12:10;347.90;;;332.47;;
17197;SDS011;8715;51.010;6.812;2023-03-11T20:14:35;360.17;;;343.47;;
17197;SDS011;8715;51.010;6.812;2023-03-11T20:17:00;391.17;;;373.03;;
17197;SDS011;8715;51.010;6.812;2023-03-11T20:19:26;366.33;;;349.73;;
17197;SDS011;8715;51.010;6.812;2023-03-11T20:21:51;364.70;;;347.35;;
17197;SDS011;8715;51.010;6.812;2023-03-11T20:24:18;358.93;;;342.70;;
17197;SDS011;8715;51.010;6.812;2023-03-11T20:26:43;365.70;;;348.60;;
17197;SDS011;8715;51.010;6.812;2023-03-11T20:29:08;359.73;;;343.03;;
17197;SDS011;8715;51.010;6.812;2023-03-11T20:31:33;348.63;;;332.07;;
17197;SDS011;8715;51.010;6.812;2023-03-11T20:34:00;360.90;;;345.10;;
17197;SDS011;8715;51.010;6.812;2023-03-11T20:36:26;361.93;;;345.47;;
17197;SDS011;8715;51.010;6.812;2023-03-11T20:38:52;357.17;;;340.95;;
17197;SDS011;8715;51.010;6.812;2023-03-11T20:41:18;357.50;;;341.10;;
17197;SDS011;8715;51.010;6.812;2023-03-11T20:43:43;371.20;;;354.40;;
17197;SDS011;8715;51.010;6.812;2023-03-11T20:46:09;378.08;;;361.13;;
17197;SDS011;8715;51.010;6.812;2023-03-11T20:48:36;358.48;;;341.55;;
17197;SDS011;8715;51.010;6.812;2023-03-11T20:51:01;421.05;;;401.90;;
17197;SDS011;8715;51.010;6.812;2023-03-11T20:53:27;355.33;;;338.88;;
17197;SDS011;8715;51.010;6.812;2023-03-11T20:55:54;353.58;;;337.05;;
17197;SDS011;8715;51.010;6.812;2023-03-11T20:58:19;355.37;;;338.70;;
17197;SDS011;8715;51.010;6.812;2023-03-11T21:00:44;363.77;;;347.23;;
17197;SDS011;8715;51.010;6.812;2023-03-11T21:03:11;369.30;;;352.80;;
17197;SDS011;8715;51.010;6.812;2023-03-11T21:05:36;361.85;;;345.70;;
17197;SDS011;8715;51.010;6.812;2023-03-11T21:08:02;358.10;;;341.77;;
17197;SDS011;8715;51.010;6.812;2023-03-11T21:10:27;358.05;;;341.80;;
17197;SDS011;8715;51.010;6.812;2023-03-11T21:12:54;352.23;;;336.48;;
17197;SDS011;8715;51.010;6.812;2023-03-11T21:15:19;349.40;;;334.27;;
17197;SDS011;8715;51.010;6.812;2023-03-11T21:17:44;361.63;;;345.75;;
17197;SDS011;8715;51.010;6.812;2023-03-11T21:20:10;342.17;;;327.07;;
17197;SDS011;8715;51.010;6.812;2023-03-11T21:22:36;346.67;;;330.98;;
17197;SDS011;8715;51.010;6.812;2023-03-11T21:25:01;343.17;;;327.17;;
17197;SDS011;8715;51.010;6.812;2023-03-11T21:27:27;347.58;;;329.95;;
17197;SDS011;8715;51.010;6.812;2023-03-11T21:29:53;356.27;;;340.50;;
17197;SDS011;8715;51.010;6.812;2023-03-11T21:32:18;347.38;;;332.13;;
17197;SDS011;8715;51.010;6.812;2023-03-11T21:34:43;348.73;;;332.70;;
17197;SDS011;8715;51.010;6.812;2023-03-11T21:37:08;325.17;;;311.13;;
17197;SDS011;8715;51.010;6.812;2023-03-11T21:39:34;336.67;;;322.03;;